createdAt,value
2022-10-18T00:00:22.056Z,98494.91
2022-10-18T00:03:25.462Z,98505.00
2022-10-18T00:06:28.252Z,98515.75
2022-10-18T00:09:32.636Z,98525.63
2022-10-18T00:12:35.814Z,98570.13
2022-10-18T00:15:38.774Z,98617.38
2022-10-18T00:18:41.861Z,98636.84
2022-10-18T00:24:48.772Z,98678.03
2022-10-18T00:27:52.529Z,98724.50
2022-10-18T00:30:55.410Z,98762.72
2022-10-18T00:34:00.141Z,98792.09
2022-10-18T00:37:02.899Z,98781.84
2022-10-18T00:40:08.400Z,98778.63
2022-10-18T00:43:17.202Z,98780.16
2022-10-18T00:46:20.122Z,98779.06
2022-10-18T00:49:31.829Z,98792.78
2022-10-18T00:52:37.944Z,98805.69
2022-10-18T00:55:42.218Z,98830.03
2022-10-18T00:58:47.410Z,98840.47
2022-10-18T01:01:50.327Z,98844.91
2022-10-18T01:04:53.289Z,98856.34
2022-10-18T01:08:34.620Z,98868.88
2022-10-18T01:12:07.179Z,98880.81
2022-10-18T01:15:15.657Z,98886.09
2022-10-18T01:18:26.984Z,98887.75
2022-10-18T01:21:39.395Z,98890.75
2022-10-18T01:28:21.144Z,98912.25
2022-10-18T01:31:31.829Z,98919.53
2022-10-18T01:34:37.386Z,98934.03
2022-10-18T01:37:42.565Z,98947.78
2022-10-18T01:40:48.814Z,98943.97
2022-10-18T01:43:57.167Z,98949.75
2022-10-18T01:47:02.482Z,98961.66
2022-10-18T01:50:07.865Z,98964.63
2022-10-18T01:53:23.529Z,98967.94
2022-10-18T01:56:38.201Z,98975.69
2022-10-18T01:59:52.964Z,98986.78
2022-10-18T02:03:03.116Z,98985.00
2022-10-18T02:06:11.435Z,98979.03
2022-10-18T02:09:20.050Z,98974.72
2022-10-18T02:12:24.429Z,98978.50
2022-10-18T02:15:31.599Z,98962.06
2022-10-18T02:18:41.476Z,98961.09
2022-10-18T02:21:47.284Z,98951.34
2022-10-18T02:24:54.446Z,98939.63
2022-10-18T02:27:57.685Z,98931.00
2022-10-18T02:31:07.725Z,98919.59
2022-10-18T02:34:18.696Z,98913.50
2022-10-18T02:37:21.848Z,98913.88
2022-10-18T02:40:26.365Z,98909.53
2022-10-18T02:43:29.197Z,98895.56
2022-10-18T02:46:32.103Z,98903.34
2022-10-18T02:49:36.282Z,98906.50
2022-10-18T02:52:39.294Z,98913.44
2022-10-18T02:55:42.090Z,98929.16
2022-10-18T02:58:45.132Z,98931.66
2022-10-18T03:01:47.986Z,98931.47
2022-10-18T03:04:52.334Z,98951.16
2022-10-18T03:07:57.764Z,98945.69
2022-10-18T03:11:00.610Z,98951.50
2022-10-18T03:14:03.453Z,98960.78
2022-10-18T03:17:06.351Z,98963.59
2022-10-18T03:20:11.871Z,98968.88
2022-10-18T03:23:14.742Z,98978.63
2022-10-18T03:26:17.617Z,98982.94
2022-10-18T03:29:20.424Z,98994.50
2022-10-18T03:32:23.337Z,98995.16
2022-10-18T03:35:27.598Z,99002.41
2022-10-18T03:38:30.496Z,99007.47
2022-10-18T03:41:33.330Z,99019.22
2022-10-18T03:44:36.160Z,99018.91
2022-10-18T03:47:39.008Z,99014.13
2022-10-18T03:50:43.882Z,99008.47
2022-10-18T03:53:46.679Z,99015.59
2022-10-18T03:56:49.516Z,99013.59
2022-10-18T03:59:52.311Z,99010.91
2022-10-18T04:02:56.039Z,99009.63
2022-10-18T04:06:03.407Z,99011.53
2022-10-18T04:09:09.361Z,99019.03
2022-10-18T04:12:13.132Z,99024.13
2022-10-18T04:15:16.106Z,99028.81
2022-10-18T04:18:18.923Z,99034.44
2022-10-18T04:21:23.153Z,99034.44
2022-10-18T04:24:26.105Z,99039.75
2022-10-18T04:27:29.117Z,99007.00
2022-10-18T04:30:32.164Z,98995.75
2022-10-18T04:33:34.989Z,98998.72
2022-10-18T04:36:39.214Z,99011.94
2022-10-18T04:39:49.781Z,99032.25
2022-10-18T04:42:55.565Z,99027.50
2022-10-18T04:45:58.374Z,99021.22
2022-10-18T04:49:01.658Z,99017.56
2022-10-18T04:52:06.205Z,99017.25
2022-10-18T04:55:09.752Z,99014.44
2022-10-18T04:58:12.880Z,99020.41
2022-10-18T05:01:17.186Z,99033.84
2022-10-18T05:04:20.098Z,99034.97
2022-10-18T05:07:24.348Z,99037.16
2022-10-18T05:10:27.293Z,99026.56
2022-10-18T05:13:30.603Z,99025.28
2022-10-18T05:16:33.473Z,99022.13
2022-10-18T05:19:36.291Z,99016.69
2022-10-18T05:22:40.500Z,99017.69
2022-10-18T05:25:43.850Z,99025.31
2022-10-18T05:28:46.897Z,99035.59
2022-10-18T05:31:50.371Z,99029.44
2022-10-18T05:34:53.224Z,99038.91
2022-10-18T05:37:57.408Z,99027.47
2022-10-18T05:41:00.874Z,99018.06
2022-10-18T05:44:05.663Z,99025.72
2022-10-18T05:47:08.506Z,99025.38
2022-10-18T05:50:11.353Z,99032.00
2022-10-18T05:53:35.717Z,99021.41
2022-10-18T05:59:41.952Z,99025.25
2022-10-18T06:02:44.793Z,99020.47
2022-10-18T06:05:47.653Z,99024.47
2022-10-18T06:08:51.826Z,99023.47
2022-10-18T06:11:55.463Z,99019.84
2022-10-18T06:14:58.297Z,99006.41
2022-10-18T06:18:01.091Z,99008.09
2022-10-18T06:21:03.987Z,99011.56
2022-10-18T06:24:08.390Z,99003.97
2022-10-18T06:27:11.250Z,99000.66
2022-10-18T06:30:14.084Z,98997.78
2022-10-18T06:33:16.889Z,99003.91
2022-10-18T06:36:23.149Z,99005.44
2022-10-18T06:39:27.823Z,99000.66
2022-10-18T06:42:31.919Z,99007.41
2022-10-18T06:45:34.985Z,98998.81
2022-10-18T06:48:39.846Z,98993.03
2022-10-18T06:51:43.442Z,99007.78
2022-10-18T06:54:47.637Z,99007.44
2022-10-18T06:57:50.438Z,99011.91
2022-10-18T07:00:53.299Z,99021.69
2022-10-18T07:03:56.543Z,99016.91
2022-10-18T07:06:59.340Z,99013.59
2022-10-18T07:10:03.744Z,98997.69
2022-10-18T07:13:31.453Z,98987.78
2022-10-18T07:16:29.357Z,98988.44
2022-10-18T07:19:32.194Z,98990.25
2022-10-18T07:22:35.121Z,98992.72
2022-10-18T07:25:39.411Z,98996.56
2022-10-18T07:28:42.759Z,98982.50
2022-10-18T07:31:45.641Z,98962.97
2022-10-18T07:34:48.474Z,98949.38
2022-10-18T07:37:51.233Z,98936.81
2022-10-18T07:40:58.952Z,98936.47
2022-10-18T07:44:02.947Z,98926.56
2022-10-18T07:47:05.827Z,98917.28
2022-10-18T07:50:09.604Z,98917.44
2022-10-18T07:53:12.514Z,98899.41
2022-10-18T07:56:21.398Z,98889.81
2022-10-18T07:59:24.390Z,98893.09
2022-10-18T08:02:27.250Z,98887.16
2022-10-18T08:05:30.599Z,98888.78
2022-10-18T08:08:33.609Z,98859.00
2022-10-18T08:11:37.819Z,98855.81
2022-10-18T08:14:40.649Z,98852.66
2022-10-18T08:17:44.300Z,98852.31
2022-10-18T08:20:47.429Z,98857.13
2022-10-18T08:23:50.891Z,98856.94
2022-10-18T08:26:55.103Z,98852.47
2022-10-18T08:29:59.809Z,98852.13
2022-10-18T08:33:02.905Z,98844.28
2022-10-18T08:36:08.374Z,98837.31
2022-10-18T08:39:11.208Z,98838.66
2022-10-18T08:42:34.953Z,98844.38
2022-10-18T08:45:42.988Z,98851.31
2022-10-18T08:48:49.780Z,98838.00
2022-10-18T08:51:53.459Z,98840.09
2022-10-18T08:55:02.597Z,98835.81
2022-10-18T08:58:17.200Z,98825.09
2022-10-18T09:01:31.564Z,98823.78
2022-10-18T09:04:44.923Z,98816.06
2022-10-18T09:08:16.196Z,98791.28
2022-10-18T09:11:32.986Z,98711.69
2022-10-18T09:15:02.703Z,98610.22
2022-10-18T09:18:17.060Z,98496.06
2022-10-18T09:21:22.861Z,98445.06
2022-10-18T09:24:32.018Z,98403.53
2022-10-18T09:27:42.626Z,98373.16
2022-10-18T09:30:58.655Z,98353.94
2022-10-18T09:34:06.478Z,98309.19
2022-10-18T09:37:14.594Z,98293.63
2022-10-18T09:40:21.967Z,98268.81
2022-10-18T09:43:34.755Z,98272.81
2022-10-18T09:46:41.930Z,98280.56
2022-10-18T09:49:48.692Z,98276.41
2022-10-18T09:52:58.049Z,98264.72
2022-10-18T09:56:04.671Z,98237.50
2022-10-18T09:59:29.128Z,98258.25
2022-10-18T10:02:33.509Z,98250.72
2022-10-18T10:05:36.413Z,98240.69
2022-10-18T10:08:43.050Z,98241.28
2022-10-18T10:11:48.823Z,98245.81
2022-10-18T10:14:51.747Z,98249.28
2022-10-18T10:17:58.763Z,98260.97
2022-10-18T10:21:06.385Z,98267.72
2022-10-18T10:24:24.997Z,98282.56
2022-10-18T10:27:33.401Z,98291.19
2022-10-18T10:30:38.539Z,98311.59
2022-10-18T10:33:47.769Z,98342.72
2022-10-18T10:36:52.139Z,98371.47
2022-10-18T10:40:19.779Z,98388.41
2022-10-18T10:43:42.583Z,98389.97
2022-10-18T10:46:45.807Z,98439.53
2022-10-18T10:49:49.996Z,98444.91
2022-10-18T10:52:53.652Z,98456.31
2022-10-18T10:55:59.113Z,98493.81
2022-10-18T10:59:11.127Z,98546.78
2022-10-18T11:02:22.634Z,98593.75
2022-10-18T11:05:29.513Z,98603.69
2022-10-18T11:08:37.035Z,98604.41
2022-10-18T11:11:46.977Z,98625.72
2022-10-18T11:14:57.042Z,98649.72
2022-10-18T11:18:11.435Z,98679.31
2022-10-18T11:21:19.841Z,98694.78
2022-10-18T11:24:24.249Z,98704.41
2022-10-18T11:27:33.965Z,98706.19
2022-10-18T11:30:49.073Z,98710.28
2022-10-18T11:34:10.170Z,98729.34
2022-10-18T11:37:38.414Z,98726.25
2022-10-18T11:40:59.502Z,98723.28
2022-10-18T11:44:05.160Z,98739.22
2022-10-18T11:47:16.799Z,98752.31
2022-10-18T11:50:28.522Z,98750.69
2022-10-18T11:53:39.887Z,98767.69
2022-10-18T11:56:49.080Z,98753.88
2022-10-18T12:00:02.357Z,98767.16
2022-10-18T12:03:23.617Z,98756.63
2022-10-18T12:06:31.920Z,98752.78
2022-10-18T12:09:41.250Z,98775.16
2022-10-18T12:12:51.478Z,98775.25
2022-10-18T12:15:55.691Z,98760.91
2022-10-18T12:19:01.132Z,98759.06
2022-10-18T12:22:15.705Z,98758.88
2022-10-18T12:25:20.755Z,98765.50
2022-10-18T12:28:34.857Z,98760.97
2022-10-18T12:31:43.400Z,98757.91
2022-10-18T12:34:50.394Z,98765.91
2022-10-18T12:38:06.653Z,98756.94
2022-10-18T12:41:21.120Z,98758.09
2022-10-18T12:44:30.761Z,98776.75
2022-10-18T12:47:34.529Z,98772.63
2022-10-18T12:50:40.482Z,98790.03
2022-10-18T12:53:45.949Z,98782.25
2022-10-18T12:56:50.987Z,98798.88
2022-10-18T12:59:53.911Z,98810.16
2022-10-18T13:03:31.274Z,98802.34
2022-10-18T13:07:11.111Z,98812.78
2022-10-18T13:10:41.359Z,98826.97
2022-10-18T13:13:55.835Z,98828.25
2022-10-18T13:17:05.871Z,98782.75
2022-10-18T13:20:26.760Z,98785.84
2022-10-18T13:23:44.319Z,98800.13
2022-10-18T13:30:40.921Z,98785.69
2022-10-18T13:33:43.824Z,98787.66
2022-10-18T13:36:57.931Z,98789.94
2022-10-18T13:40:24.047Z,98785.16
2022-10-18T13:43:52.437Z,98780.47
2022-10-18T13:47:36.417Z,98778.25
2022-10-18T13:50:44.236Z,98767.34
2022-10-18T13:53:56.363Z,98775.84
2022-10-18T13:57:15.333Z,98766.50
2022-10-18T14:00:48.224Z,98750.84
2022-10-18T14:04:24.017Z,98742.19
2022-10-18T14:07:28.196Z,98730.75
2022-10-18T14:10:57.442Z,98718.41
2022-10-18T14:14:13.349Z,98707.91
2022-10-18T14:17:33.215Z,98694.34
2022-10-18T14:20:55.365Z,98702.13
2022-10-18T14:24:10.785Z,98695.06
2022-10-18T14:27:18.712Z,98685.78
2022-10-18T14:30:22.138Z,98698.47
2022-10-18T14:33:32.794Z,98702.81
2022-10-18T14:36:41.756Z,98712.75
2022-10-18T14:39:44.648Z,98712.28
2022-10-18T14:42:50.071Z,98710.84
2022-10-18T14:45:53.120Z,98708.00
2022-10-18T14:48:57.829Z,98702.59
2022-10-18T14:52:02.354Z,98701.53
2022-10-18T14:55:05.959Z,98713.41
2022-10-18T14:58:15.888Z,98720.53
2022-10-18T15:01:21.124Z,98729.41
2022-10-18T15:04:31.100Z,98732.47
2022-10-18T15:07:36.717Z,98742.56
2022-10-18T15:10:40.010Z,98742.78
2022-10-18T15:13:49.534Z,98743.16
2022-10-18T15:16:56.131Z,98754.69
2022-10-18T15:20:05.150Z,98751.09
2022-10-18T15:23:25.878Z,98764.66
2022-10-18T15:26:31.355Z,98766.63
2022-10-18T15:29:37.681Z,98770.06
2022-10-18T15:32:49.795Z,98779.81
2022-10-18T15:35:54.189Z,98782.78
2022-10-18T15:39:08.604Z,98784.13
2022-10-18T15:42:37.076Z,98792.03
2022-10-18T15:48:50.692Z,98786.50
2022-10-18T15:52:38.270Z,98791.03
2022-10-18T15:55:52.871Z,98786.16
2022-10-18T15:58:57.794Z,98788.50
2022-10-18T16:02:01.006Z,98789.84
2022-10-18T16:05:04.966Z,98798.09
2022-10-18T16:08:07.974Z,98795.47
2022-10-18T16:11:16.371Z,98790.78
2022-10-18T16:14:19.700Z,98802.38
2022-10-18T16:17:22.570Z,98803.06
2022-10-18T16:20:26.874Z,98803.78
2022-10-18T16:23:29.755Z,98813.31
2022-10-18T16:26:34.825Z,98795.91
2022-10-18T16:29:37.712Z,98793.97
2022-10-18T16:32:40.854Z,98790.19
2022-10-18T16:35:43.853Z,98790.78
2022-10-18T16:38:47.722Z,98784.84
2022-10-18T16:41:52.259Z,98768.56
2022-10-18T16:44:55.329Z,98744.69
2022-10-18T16:47:58.163Z,98716.31
2022-10-18T16:51:01.059Z,98699.75
2022-10-18T16:54:03.987Z,98691.03
2022-10-18T16:57:08.202Z,98677.81
2022-10-18T17:00:18.269Z,98685.69
2022-10-18T17:03:22.144Z,98695.03
2022-10-18T17:06:27.464Z,98704.28
2022-10-18T17:09:31.216Z,98716.75
2022-10-18T17:12:35.734Z,98741.75
2022-10-18T17:15:41.204Z,98744.75
2022-10-18T17:18:44.268Z,98755.97
2022-10-18T17:21:47.393Z,98760.97
2022-10-18T17:24:51.025Z,98770.22
2022-10-18T17:27:55.258Z,98773.19
2022-10-18T17:30:58.607Z,98787.78
2022-10-18T17:34:02.168Z,98803.69
2022-10-18T17:37:05.851Z,98817.94
2022-10-18T17:40:10.811Z,98832.50
2022-10-18T17:43:15.576Z,98832.66
2022-10-18T17:46:19.578Z,98835.78
2022-10-18T17:49:22.910Z,98834.28
2022-10-18T17:52:26.159Z,98830.75
2022-10-18T17:55:30.244Z,98817.22
2022-10-18T17:58:35.302Z,98806.16
2022-10-18T18:01:38.613Z,98817.53
2022-10-18T18:04:41.500Z,98808.91
2022-10-18T18:07:44.549Z,98808.28
2022-10-18T18:13:51.881Z,98819.53
2022-10-18T18:16:55.074Z,98814.28
2022-10-18T18:19:58.227Z,98843.41
2022-10-18T18:23:04.613Z,98836.13
2022-10-18T18:26:07.809Z,98833.50
2022-10-18T18:29:14.323Z,98820.91
2022-10-18T18:32:19.280Z,98822.72
2022-10-18T18:35:22.388Z,98825.41
2022-10-18T18:38:26.414Z,98829.19
2022-10-18T18:41:29.743Z,98819.28
2022-10-18T18:44:35.518Z,98825.75
2022-10-18T18:47:39.947Z,98822.22
2022-10-18T18:50:50.484Z,98831.03
2022-10-18T18:53:53.571Z,98842.13
2022-10-18T18:56:57.878Z,98848.91
2022-10-18T19:00:02.220Z,98851.72
2022-10-18T19:03:06.441Z,98854.06
2022-10-18T19:06:11.153Z,98860.81
2022-10-18T19:09:21.814Z,98879.53
2022-10-18T19:12:27.681Z,98865.31
2022-10-18T19:15:32.052Z,98868.28
2022-10-18T19:18:35.609Z,98892.59
2022-10-18T19:21:40.590Z,98894.25
2022-10-18T19:24:43.421Z,98907.69
2022-10-18T19:27:46.287Z,98909.66
2022-10-18T19:30:50.685Z,98910.50
2022-10-18T19:33:59.569Z,98914.47
2022-10-18T19:37:02.895Z,98926.53
2022-10-18T19:40:06.843Z,98937.84
2022-10-18T19:43:09.780Z,98941.78
2022-10-18T19:46:14.089Z,98946.09
2022-10-18T19:49:17.929Z,98959.69
2022-10-18T19:52:21.011Z,98949.75
2022-10-18T19:55:26.932Z,98944.78
2022-10-18T19:58:30.034Z,98953.38
2022-10-18T20:01:34.400Z,98944.91
2022-10-18T20:04:38.237Z,98944.28
2022-10-18T20:07:42.578Z,98943.75
2022-10-18T20:10:45.908Z,98945.09
2022-10-18T20:13:49.610Z,98951.53
2022-10-18T20:16:54.031Z,98950.22
2022-10-18T20:19:57.076Z,98952.31
2022-10-18T20:23:00.480Z,98959.59
2022-10-18T20:26:05.741Z,98967.00
2022-10-18T20:29:08.741Z,98976.47
2022-10-18T20:32:13.459Z,98985.44
2022-10-18T20:35:16.593Z,98979.47
2022-10-18T20:38:21.804Z,98984.75
2022-10-18T20:41:26.688Z,98999.03
2022-10-18T20:44:31.942Z,98988.22
2022-10-18T20:47:36.733Z,98984.94
2022-10-18T20:50:43.071Z,98982.97
2022-10-18T20:53:46.760Z,98957.00
2022-10-18T20:56:49.797Z,98955.19
2022-10-18T20:59:52.638Z,98947.06
2022-10-18T21:02:59.776Z,98931.47
2022-10-18T21:06:12.744Z,98935.78
2022-10-18T21:09:18.685Z,98930.47
2022-10-18T21:12:21.771Z,98944.34
2022-10-18T21:15:24.593Z,98960.94
2022-10-18T21:18:29.879Z,98967.84
2022-10-18T21:21:33.345Z,98965.44
2022-10-18T21:24:36.688Z,98987.91
2022-10-18T21:27:39.581Z,98990.19
2022-10-18T21:30:42.828Z,99005.91
2022-10-18T21:33:47.763Z,99029.31
2022-10-18T21:36:50.686Z,99045.19
2022-10-18T21:39:53.511Z,99049.81
2022-10-18T21:42:56.327Z,99065.56
2022-10-18T21:46:00.240Z,99076.34
2022-10-18T21:49:04.567Z,99084.94
2022-10-18T21:52:07.418Z,99086.59
2022-10-18T21:55:10.688Z,99094.72
2022-10-18T21:58:13.515Z,99103.13
2022-10-18T22:01:18.008Z,99102.81
2022-10-18T22:04:23.662Z,99109.69
2022-10-18T22:07:26.502Z,99102.09
2022-10-18T22:10:29.898Z,99103.06
2022-10-18T22:13:33.144Z,99109.38
2022-10-18T22:16:36.090Z,99114.34
2022-10-18T22:19:40.569Z,99117.97
2022-10-18T22:22:43.475Z,99101.75
2022-10-18T22:25:46.331Z,99112.34
2022-10-18T22:28:55.923Z,99126.56
2022-10-18T22:31:58.912Z,99180.44
2022-10-18T22:35:03.136Z,99187.09
2022-10-18T22:38:05.953Z,99200.69
2022-10-18T22:41:09.990Z,99179.81
2022-10-18T22:44:14.346Z,99205.44
2022-10-18T22:47:17.177Z,99204.63
2022-10-18T22:50:21.417Z,99209.25
2022-10-18T22:53:24.431Z,99209.53
2022-10-18T22:56:27.253Z,99273.50
2022-10-18T22:59:30.142Z,99247.13
2022-10-18T23:02:33.291Z,99263.91
2022-10-18T23:05:39.978Z,99260.91
2022-10-18T23:08:42.844Z,99262.84
2022-10-18T23:11:47.053Z,99237.69
2022-10-18T23:14:49.871Z,99232.28
2022-10-18T23:17:54.610Z,99241.50
2022-10-18T23:21:03.264Z,99237.88
2022-10-18T23:24:06.294Z,99241.63
2022-10-18T23:27:09.129Z,99246.25
2022-10-18T23:30:13.024Z,99256.00
2022-10-18T23:33:15.869Z,99264.91
2022-10-18T23:36:22.732Z,99264.75
2022-10-18T23:39:25.587Z,99266.41
2022-10-18T23:42:28.497Z,99258.56
2022-10-18T23:45:31.303Z,99249.66
2022-10-18T23:48:35.108Z,99249.25
2022-10-18T23:51:39.322Z,99229.06
2022-10-18T23:54:42.172Z,99229.94
2022-10-18T23:57:44.987Z,99221.38
